Time,TemperatureF,DewpointF,PressureIn,WindDirection,WindDirectionDegrees,WindSpeedMPH,WindSpeedGustMPH,Humidity,HourlyPrecipIn,Conditions,Clouds,dailyrainin,SoftwareType,DateUTC
2013-08-15 00:00:00,51.8,49.8,30.21,NNE,26,0.0,0.0,93,0.00,,CLR,0.00,VWS V14.00,2013-08-15 05:00:00,
2013-08-15 00:01:00,51.6,49.7,30.21,NNE,26,0.0,0.0,93,0.00,,CLR,0.00,VWS V14.00,2013-08-15 05:01:00,
2013-08-15 00:06:00,51.4,49.5,30.21,NNE,26,0.0,0.0,93,0.00,,CLR,0.00,VWS V14.00,2013-08-15 05:06:00,
2013-08-15 00:11:00,51.3,49.3,30.21,NNE,26,0.0,0.0,93,0.00,,CLR,0.00,VWS V14.00,2013-08-15 05:11:00,
2013-08-15 00:16:00,51.2,49.2,30.21,NNE,26,0.0,0.0,93,0.00,,CLR,0.00,VWS V14.00,2013-08-15 05:16:00,
2013-08-15 00:21:00,51.1,49.2,30.21,NNE,26,0.0,0.0,93,0.00,,CLR,0.00,VWS V14.00,2013-08-15 05:21:00,
2013-08-15 00:26:00,51.0,49.0,30.21,NNE,26,0.0,0.0,93,0.00,,CLR,0.00,VWS V14.00,2013-08-15 05:26:00,
2013-08-15 00:30:00,51.1,49.2,30.21,NNE,26,0.0,0.0,93,0.00,,CLR,0.00,VWS V14.00,2013-08-15 05:30:00,
2013-08-15 00:31:00,50.9,49.0,30.21,NNE,26,0.0,0.0,93,0.00,,CLR,0.00,VWS V14.00,2013-08-15 05:31:00,
2013-08-15 00:36:00,50.9,49.0,30.21,NNE,26,0.0,0.0,93,0.00,,CLR,0.00,VWS V14.00,2013-08-15 05:36:00,
2013-08-15 00:41:00,50.7,48.8,30.21,NNE,26,0.0,0.0,93,0.00,,CLR,0.00,VWS V14.00,2013-08-15 05:41:00,
2013-08-15 00:46:00,50.6,48.7,30.21,NNE,26,0.0,0.0,93,0.00,,CLR,0.00,VWS V14.00,2013-08-15 05:46:00,
2013-08-15 00:51:00,50.5,48.6,30.21,NNE,26,0.0,0.0,93,0.00,,CLR,0.00,VWS V14.00,2013-08-15 05:51:00,
2013-08-15 00:56:00,50.4,48.5,30.21,NNE,26,0.0,0.0,93,0.00,,CLR,0.00,VWS V14.00,2013-08-15 05:56:00,
2013-08-15 01:00:00,50.5,48.6,30.21,NNE,26,0.0,0.0,93,0.00,,CLR,0.00,VWS V14.00,2013-08-15 06:00:00,
2013-08-15 01:01:00,50.4,48.5,30.21,NNE,26,0.0,0.0,93,0.00,,CLR,0.00,VWS V14.00,2013-08-15 06:01:00,
2013-08-15 01:06:00,50.3,48.4,30.21,NNE,26,0.0,0.0,93,0.00,,CLR,0.00,VWS V14.00,2013-08-15 06:06:00,
2013-08-15 01:11:00,50.3,48.4,30.21,NNE,26,0.0,0.0,93,0.00,,CLR,0.00,VWS V14.00,2013-08-15 06:11:00,
2013-08-15 01:16:00,50.2,48.3,30.21,NNE,26,0.0,0.0,93,0.00,,CLR,0.00,VWS V14.00,2013-08-15 06:16:00,
2013-08-15 01:20:00,50.1,48.2,30.21,NNE,26,0.0,0.0,93,0.00,,CLR,0.00,VWS V14.00,2013-08-15 06:20:00,
2013-08-15 01:25:00,50.0,48.1,30.22,NNE,26,0.0,0.0,93,0.00,,CLR,0.00,VWS V14.00,2013-08-15 06:25:00,
2013-08-15 01:30:00,49.8,47.9,30.21,NNE,26,0.0,0.0,93,0.00,,CLR,0.00,VWS V14.00,2013-08-15 06:30:00,
2013-08-15 01:35:00,49.7,47.8,30.21,NNE,26,0.0,0.0,93,0.00,,CLR,0.00,VWS V14.00,2013-08-15 06:35:00,
2013-08-15 01:40:00,49.6,47.7,30.21,NNE,26,0.0,0.0,93,0.00,,CLR,0.00,VWS V14.00,2013-08-15 06:40:00,
2013-08-15 01:45:00,49.6,47.7,30.21,NNE,26,0.0,0.0,93,0.00,,CLR,0.00,VWS V14.00,2013-08-15 06:45:00,
2013-08-15 01:50:00,49.5,47.6,30.21,NNE,26,0.0,0.0,93,0.00,,CLR,0.00,VWS V14.00,2013-08-15 06:50:00,
2013-08-15 01:55:00,49.5,47.6,30.21,NNE,26,0.0,0.0,93,0.00,,CLR,0.00,VWS V14.00,2013-08-15 06:55:00,
2013-08-15 02:00:00,49.5,47.6,30.20,NNE,26,0.0,0.0,93,0.00,,CLR,0.00,VWS V14.00,2013-08-15 07:00:00,
2013-08-15 02:05:00,49.4,47.5,30.20,NNE,26,0.0,0.0,93,0.00,,CLR,0.00,VWS V14.00,2013-08-15 07:05:00,
2013-08-15 02:10:00,49.4,47.5,30.20,NNE,26,0.0,0.0,93,0.00,,CLR,0.00,VWS V14.00,2013-08-15 07:10:00,
2013-08-15 02:15:00,49.4,47.5,30.20,NNE,26,0.0,0.0,93,0.00,,CLR,0.00,VWS V14.00,2013-08-15 07:15:00,
2013-08-15 02:20:00,49.4,47.5,30.20,NNE,26,0.0,0.0,93,0.00,,CLR,0.00,VWS V14.00,2013-08-15 07:20:00,
2013-08-15 02:25:00,49.4,47.5,30.20,NNE,26,0.0,0.0,93,0.00,,CLR,0.00,VWS V14.00,2013-08-15 07:25:00,
2013-08-15 02:30:00,49.3,47.4,30.19,NNE,26,0.0,0.0,93,0.00,,CLR,0.00,VWS V14.00,2013-08-15 07:30:00,
2013-08-15 02:35:00,49.2,47.3,30.19,NNE,26,0.0,0.0,93,0.00,,CLR,0.00,VWS V14.00,2013-08-15 07:35:00,
2013-08-15 02:40:00,49.2,47.3,30.19,NNE,26,0.0,0.0,93,0.00,,CLR,0.00,VWS V14.00,2013-08-15 07:40:00,
2013-08-15 02:45:00,49.2,47.3,30.19,NNE,26,0.0,0.0,93,0.00,,CLR,0.00,VWS V14.00,2013-08-15 07:45:00,
2013-08-15 02:50:00,49.2,47.3,30.19,NNE,26,0.0,0.0,93,0.00,,CLR,0.00,VWS V14.00,2013-08-15 07:50:00,
2013-08-15 02:55:00,49.1,47.2,30.19,NNE,26,0.0,0.0,93,0.00,,CLR,0.00,VWS V14.00,2013-08-15 07:55:00,
2013-08-15 03:00:00,49.1,47.2,30.19,NNE,26,0.0,0.0,93,0.00,,CLR,0.00,VWS V14.00,2013-08-15 08:00:00,
2013-08-15 03:05:00,49.1,47.2,30.19,NNE,26,0.0,0.0,93,0.00,,CLR,0.00,VWS V14.00,2013-08-15 08:05:00,
2013-08-15 03:10:00,49.2,47.3,30.19,NNE,26,0.0,0.0,93,0.00,,CLR,0.00,VWS V14.00,2013-08-15 08:10:00,
2013-08-15 03:15:00,49.2,47.3,30.19,NNE,26,0.0,0.0,93,0.00,,CLR,0.00,VWS V14.00,2013-08-15 08:15:00,
2013-08-15 03:20:00,49.2,47.3,30.19,NNE,26,0.0,0.0,93,0.00,,CLR,0.00,VWS V14.00,2013-08-15 08:20:00,
2013-08-15 03:25:00,49.1,47.2,30.19,NNE,26,0.0,0.0,93,0.00,,CLR,0.00,VWS V14.00,2013-08-15 08:25:00,
2013-08-15 03:30:00,49.2,47.3,30.19,NNE,26,0.0,0.0,93,0.00,,CLR,0.00,VWS V14.00,2013-08-15 08:30:00,
2013-08-15 04:00:00,49.1,47.2,30.19,North,0,0.0,0.0,93,0.00,,CLR,0.00,VWS V14.00,2013-08-15 09:00:00,
2013-08-15 04:30:00,49.2,47.3,30.18,North,0,0.0,0.0,93,0.00,,CLR,0.00,VWS V14.00,2013-08-15 09:30:00,
2013-08-15 05:00:00,49.2,47.3,30.19,North,0,0.0,0.0,93,0.00,,CLR,0.00,VWS V14.00,2013-08-15 10:00:00,
2013-08-15 05:30:00,49.2,47.3,30.20,North,0,0.0,0.0,93,0.00,,CLR,0.00,VWS V14.00,2013-08-15 10:30:00,
2013-08-15 06:00:00,49.1,47.2,30.20,North,0,0.0,0.0,93,0.00,,CLR,0.00,VWS V14.00,2013-08-15 11:00:00,
2013-08-15 06:30:00,49.4,47.5,30.20,North,0,0.0,0.0,93,0.00,,CLR,0.00,VWS V14.00,2013-08-15 11:30:00,
2013-08-15 07:00:00,49.9,48.0,30.21,North,0,0.0,0.0,93,0.00,,CLR,0.00,VWS V14.00,2013-08-15 12:00:00,
2013-08-15 07:30:00,51.1,49.2,30.21,North,0,0.0,0.0,93,0.00,,CLR,0.00,VWS V14.00,2013-08-15 12:30:00,
2013-08-15 08:00:00,53.0,51.0,30.21,North,0,0.0,0.0,93,0.00,,CLR,0.00,VWS V14.00,2013-08-15 13:00:00,
2013-08-15 08:29:00,53.0,51.0,30.21,North,0,0.0,0.0,93,0.00,,CLR,0.00,VWS V14.00,2013-08-15 13:29:00,
2013-08-15 08:34:00,60.8,56.6,30.21,NE,39,0.0,0.0,86,0.00,,CLR,0.00,VWS V14.00,2013-08-15 13:34:00,
2013-08-15 08:39:00,61.1,56.2,30.21,NE,39,0.0,0.0,84,0.00,,CLR,0.00,VWS V14.00,2013-08-15 13:39:00,
2013-08-15 08:44:00,61.4,56.9,30.21,NE,43,0.0,0.0,85,0.00,,CLR,0.00,VWS V14.00,2013-08-15 13:44:00,
2013-08-15 08:49:00,61.9,57.7,30.22,NE,43,0.0,0.0,86,0.00,,CLR,0.00,VWS V14.00,2013-08-15 13:49:00,
2013-08-15 08:54:00,62.2,57.0,30.22,NE,42,0.0,0.0,83,0.00,,CLR,0.00,VWS V14.00,2013-08-15 13:54:00,
2013-08-15 08:59:00,62.3,56.7,30.22,NE,42,0.0,0.0,82,0.00,,CLR,0.00,VWS V14.00,2013-08-15 13:59:00,
2013-08-15 09:00:00,62.1,57.2,30.22,NE,42,0.0,0.0,84,0.00,,CLR,0.00,VWS V14.00,2013-08-15 14:00:00,
2013-08-15 09:04:00,62.6,57.4,30.22,NE,42,0.0,0.0,83,0.00,,CLR,0.00,VWS V14.00,2013-08-15 14:04:00,
2013-08-15 09:09:00,63.0,57.8,30.22,NE,42,0.0,0.0,83,0.00,,CLR,0.00,VWS V14.00,2013-08-15 14:09:00,
2013-08-15 09:14:00,63.3,57.0,30.22,NE,42,0.0,0.0,80,0.00,,CLR,0.00,VWS V14.00,2013-08-15 14:14:00,
2013-08-15 09:19:00,63.5,57.2,30.22,NE,42,0.0,0.0,80,0.00,,CLR,0.00,VWS V14.00,2013-08-15 14:19:00,
2013-08-15 09:24:00,63.8,57.2,30.21,NE,42,0.0,0.0,79,0.00,,CLR,0.00,VWS V14.00,2013-08-15 14:24:00,
2013-08-15 09:29:00,64.3,57.3,30.21,NE,42,0.0,0.0,78,0.00,,CLR,0.00,VWS V14.00,2013-08-15 14:29:00,
2013-08-15 09:30:00,63.6,57.3,30.22,NE,42,0.0,0.0,80,0.00,,CLR,0.00,VWS V14.00,2013-08-15 14:30:00,
2013-08-15 09:34:00,64.7,59.1,30.21,NE,42,0.0,0.0,82,0.00,,CLR,0.00,VWS V14.00,2013-08-15 14:34:00,
2013-08-15 09:39:00,65.2,58.2,30.21,NE,43,0.0,0.0,78,0.00,,CLR,0.00,VWS V14.00,2013-08-15 14:39:00,
2013-08-15 09:44:00,65.7,57.9,30.22,NE,43,0.0,0.0,76,0.00,,CLR,0.00,VWS V14.00,2013-08-15 14:44:00,
2013-08-15 09:49:00,66.0,58.2,30.22,NE,43,0.0,0.0,76,0.00,,CLR,0.00,VWS V14.00,2013-08-15 14:49:00,
2013-08-15 09:54:00,65.9,58.5,30.21,NE,42,0.0,0.0,77,0.00,,CLR,0.00,VWS V14.00,2013-08-15 14:54:00,
2013-08-15 09:59:00,66.1,58.3,30.21,NE,44,0.0,0.0,76,0.00,,CLR,0.00,VWS V14.00,2013-08-15 14:59:00,
2013-08-15 10:00:00,66.0,58.2,30.22,NE,43,0.0,0.0,76,0.00,,CLR,0.00,VWS V14.00,2013-08-15 15:00:00,
2013-08-15 10:04:00,66.5,58.0,30.21,NNE,33,0.0,0.0,74,0.00,,CLR,0.00,VWS V14.00,2013-08-15 15:04:00,
2013-08-15 10:09:00,66.7,58.5,30.21,NE,36,0.0,0.0,75,0.00,,CLR,0.00,VWS V14.00,2013-08-15 15:09:00,
2013-08-15 10:14:00,66.9,58.3,30.21,NE,52,0.0,0.0,74,0.00,,CLR,0.00,VWS V14.00,2013-08-15 15:14:00,
2013-08-15 10:19:00,66.7,57.8,30.21,NE,51,0.0,0.0,73,0.00,,CLR,0.00,VWS V14.00,2013-08-15 15:19:00,
2013-08-15 10:24:00,66.7,58.9,30.21,NNE,28,0.0,0.0,76,0.00,,CLR,0.00,VWS V14.00,2013-08-15 15:24:00,
2013-08-15 10:29:00,66.8,58.3,30.21,NE,34,0.0,0.0,74,0.00,,CLR,0.00,VWS V14.00,2013-08-15 15:29:00,
2013-08-15 10:30:00,66.7,58.2,30.21,NE,45,0.0,0.0,74,0.00,,CLR,0.00,VWS V14.00,2013-08-15 15:30:00,
2013-08-15 10:34:00,66.8,57.9,30.21,NE,48,4.0,4.0,73,0.00,,CLR,0.00,VWS V14.00,2013-08-15 15:34:00,
2013-08-15 10:39:00,67.0,57.3,30.21,ENE,66,3.0,7.0,71,0.00,,CLR,0.00,VWS V14.00,2013-08-15 15:39:00,
2013-08-15 10:44:00,67.2,58.6,30.21,NE,37,5.0,7.0,74,0.00,,CLR,0.00,VWS V14.00,2013-08-15 15:44:00,
2013-08-15 10:49:00,67.4,57.7,30.21,NE,46,3.0,7.0,71,0.00,,CLR,0.00,VWS V14.00,2013-08-15 15:49:00,
2013-08-15 10:54:00,67.7,58.0,30.21,NE,55,1.0,3.0,71,0.00,,CLR,0.00,VWS V14.00,2013-08-15 15:54:00,
2013-08-15 10:59:00,68.3,57.8,30.21,NE,34,6.0,7.0,69,0.00,,CLR,0.00,VWS V14.00,2013-08-15 15:59:00,
2013-08-15 11:00:00,67.4,57.3,30.21,NE,45,3.0,7.0,70,0.00,,CLR,0.00,VWS V14.00,2013-08-15 16:00:00,
2013-08-15 11:04:00,68.9,58.3,30.21,NNE,23,2.0,7.0,69,0.00,,CLR,0.00,VWS V14.00,2013-08-15 16:04:00,
2013-08-15 11:09:00,69.4,58.4,30.21,NNE,32,7.0,10.0,68,0.00,,CLR,0.00,VWS V14.00,2013-08-15 16:09:00,
2013-08-15 11:14:00,69.7,57.8,30.21,NE,40,3.0,10.0,66,0.00,,CLR,0.00,VWS V14.00,2013-08-15 16:14:00,
2013-08-15 11:19:00,70.0,57.3,30.21,NNE,26,7.0,10.0,64,0.00,,CLR,0.00,VWS V14.00,2013-08-15 16:19:00,
2013-08-15 11:25:00,70.1,58.2,30.21,NE,41,5.0,6.0,66,0.00,,CLR,0.00,VWS V14.00,2013-08-15 16:25:00,
2013-08-15 11:30:00,70.1,58.2,30.20,East,92,0.0,7.0,66,0.00,,CLR,0.00,VWS V14.00,2013-08-15 16:30:00,
2013-08-15 11:35:00,70.2,56.6,30.20,NE,44,4.0,12.0,62,0.00,,CLR,0.00,VWS V14.00,2013-08-15 16:35:00,
2013-08-15 11:40:00,70.2,55.7,30.20,NE,50,1.0,12.0,60,0.00,,CLR,0.00,VWS V14.00,2013-08-15 16:40:00,
2013-08-15 11:45:00,70.2,56.6,30.20,ENE,65,1.0,12.0,62,0.00,,CLR,0.00,VWS V14.00,2013-08-15 16:45:00,
2013-08-15 11:50:00,70.2,56.6,30.20,NNE,17,3.0,12.0,62,0.00,,CLR,0.00,VWS V14.00,2013-08-15 16:50:00,
2013-08-15 11:55:00,70.0,58.1,30.20,ENE,65,0.0,7.0,66,0.00,,CLR,0.00,VWS V14.00,2013-08-15 16:55:00,
2013-08-15 12:00:00,69.9,56.3,30.20,NE,36,5.0,9.0,62,0.00,,CLR,0.00,VWS V14.00,2013-08-15 17:00:00,
2013-08-15 12:05:00,70.1,57.4,30.20,NE,51,4.0,9.0,64,0.00,,CLR,0.00,VWS V14.00,2013-08-15 17:05:00,
2013-08-15 12:10:00,70.5,57.3,30.19,NE,43,2.0,9.0,63,0.00,,CLR,0.00,VWS V14.00,2013-08-15 17:10:00,
2013-08-15 12:15:00,70.8,57.2,30.20,NE,49,4.0,10.0,62,0.00,,CLR,0.00,VWS V14.00,2013-08-15 17:15:00,
2013-08-15 12:20:00,70.9,56.3,30.19,NNE,29,3.0,12.0,60,0.00,,CLR,0.00,VWS V14.00,2013-08-15 17:20:00,
2013-08-15 12:25:00,71.1,56.5,30.19,NNE,30,2.0,9.0,60,0.00,,CLR,0.00,VWS V14.00,2013-08-15 17:25:00,
2013-08-15 12:30:00,71.2,58.0,30.19,NE,47,7.0,9.0,63,0.00,,CLR,0.00,VWS V14.00,2013-08-15 17:30:00,
2013-08-15 12:35:00,71.2,57.5,30.19,ESE,110,5.0,9.0,62,0.00,,CLR,0.00,VWS V14.00,2013-08-15 17:35:00,
2013-08-15 12:40:00,70.8,56.2,30.19,NE,41,4.0,10.0,60,0.00,,CLR,0.00,VWS V14.00,2013-08-15 17:40:00,
2013-08-15 12:45:00,70.4,56.8,30.19,NE,41,0.0,10.0,62,0.00,,CLR,0.00,VWS V14.00,2013-08-15 17:45:00,
2013-08-15 12:50:00,70.9,58.1,30.19,NE,40,4.0,12.0,64,0.00,,CLR,0.00,VWS V14.00,2013-08-15 17:50:00,
2013-08-15 12:55:00,71.4,56.3,30.18,NE,56,3.0,7.0,59,0.00,,CLR,0.00,VWS V14.00,2013-08-15 17:55:00,
2013-08-15 13:00:00,71.5,57.4,30.18,NNE,24,7.0,7.0,61,0.00,,CLR,0.00,VWS V14.00,2013-08-15 18:00:00,
2013-08-15 13:05:00,71.7,57.5,30.18,ENE,78,4.0,7.0,61,0.00,,CLR,0.00,VWS V14.00,2013-08-15 18:05:00,
2013-08-15 13:10:00,71.6,56.1,30.18,ENE,67,2.0,10.0,58,0.00,,CLR,0.00,VWS V14.00,2013-08-15 18:10:00,
2013-08-15 13:15:00,71.3,58.1,30.18,NNE,22,5.0,7.0,63,0.00,,CLR,0.00,VWS V14.00,2013-08-15 18:15:00,
2013-08-15 13:20:00,71.7,57.5,30.18,NE,51,2.0,7.0,61,0.00,,CLR,0.00,VWS V14.00,2013-08-15 18:20:00,
2013-08-15 13:26:00,72.1,58.4,30.17,NNE,21,4.0,6.0,62,0.00,,CLR,0.00,VWS V14.00,2013-08-15 18:26:00,
2013-08-15 13:30:00,71.7,57.5,30.18,NE,51,2.0,7.0,61,0.00,,CLR,0.00,VWS V14.00,2013-08-15 18:30:00,
2013-08-15 13:31:00,72.4,56.3,30.17,ENE,68,3.0,8.0,57,0.00,,CLR,0.00,VWS V14.00,2013-08-15 18:31:00,
2013-08-15 13:36:00,72.1,57.5,30.17,East,80,1.0,8.0,60,0.00,,CLR,0.00,VWS V14.00,2013-08-15 18:36:00,
2013-08-15 13:41:00,71.8,56.2,30.17,NE,46,3.0,8.0,58,0.00,,CLR,0.00,VWS V14.00,2013-08-15 18:41:00,
2013-08-15 13:46:00,71.2,56.6,30.17,ESE,113,0.0,4.0,60,0.00,,CLR,0.00,VWS V14.00,2013-08-15 18:46:00,
2013-08-15 13:51:00,71.4,58.2,30.17,ENE,65,4.0,4.0,63,0.00,,CLR,0.00,VWS V14.00,2013-08-15 18:51:00,
2013-08-15 13:56:00,71.7,58.5,30.17,East,96,2.0,6.0,63,0.00,,CLR,0.00,VWS V14.00,2013-08-15 18:56:00,
2013-08-15 14:00:00,71.3,58.1,30.17,North,11,2.0,5.0,63,0.00,,CLR,0.00,VWS V14.00,2013-08-15 19:00:00,
2013-08-15 14:01:00,71.8,56.2,30.17,ESE,104,2.0,6.0,58,0.00,,CLR,0.00,VWS V14.00,2013-08-15 19:01:00,
2013-08-15 14:06:00,72.0,58.7,30.16,ENE,73,3.0,6.0,63,0.00,,CLR,0.00,VWS V14.00,2013-08-15 19:06:00,
2013-08-15 14:11:00,72.7,57.6,30.16,SSE,162,0.0,6.0,59,0.00,,CLR,0.00,VWS V14.00,2013-08-15 19:11:00,
2013-08-15 14:16:00,73.1,58.9,30.16,East,91,5.0,7.0,61,0.00,,CLR,0.00,VWS V14.00,2013-08-15 19:16:00,
2013-08-15 14:21:00,73.1,56.5,30.16,NE,40,0.0,2.0,56,0.00,,CLR,0.00,VWS V14.00,2013-08-15 19:21:00,
2013-08-15 14:26:00,73.3,57.7,30.16,NE,54,0.0,4.0,58,0.00,,CLR,0.00,VWS V14.00,2013-08-15 19:26:00,
2013-08-15 14:30:00,73.1,57.0,30.16,NE,40,1.0,8.0,57,0.00,,CLR,0.00,VWS V14.00,2013-08-15 19:30:00,
2013-08-15 14:31:00,73.6,58.4,30.16,ESE,105,4.0,6.0,59,0.00,,CLR,0.00,VWS V14.00,2013-08-15 19:31:00,
2013-08-15 14:36:00,74.0,57.8,30.16,ESE,113,4.0,6.0,57,0.00,,CLR,0.00,VWS V14.00,2013-08-15 19:36:00,
2013-08-15 14:41:00,74.1,58.4,30.16,NE,36,2.0,7.0,58,0.00,,CLR,0.00,VWS V14.00,2013-08-15 19:41:00,
2013-08-15 14:46:00,73.5,56.4,30.16,NE,56,7.0,8.0,55,0.00,,CLR,0.00,VWS V14.00,2013-08-15 19:46:00,
2013-08-15 14:51:00,72.5,57.4,30.16,North,355,1.0,3.0,59,0.00,,CLR,0.00,VWS V14.00,2013-08-15 19:51:00,
2013-08-15 14:56:00,72.6,57.5,30.15,NNW,347,0.0,5.0,59,0.00,,CLR,0.00,VWS V14.00,2013-08-15 19:56:00,
2013-08-15 15:00:00,72.5,56.4,30.16,North,355,3.0,12.0,57,0.00,,CLR,0.00,VWS V14.00,2013-08-15 20:00:00,
2013-08-15 15:01:00,73.0,57.8,30.15,North,9,5.0,8.0,59,0.00,,CLR,0.00,VWS V14.00,2013-08-15 20:01:00,
2013-08-15 15:07:00,73.0,59.2,30.15,NE,44,5.0,8.0,62,0.00,,CLR,0.00,VWS V14.00,2013-08-15 20:07:00,
2013-08-15 15:12:00,73.2,57.5,30.15,ENE,60,5.0,8.0,58,0.00,,CLR,0.00,VWS V14.00,2013-08-15 20:12:00,
2013-08-15 15:17:00,73.7,58.0,30.14,NE,49,7.0,11.0,58,0.00,,CLR,0.00,VWS V14.00,2013-08-15 20:17:00,
2013-08-15 15:22:00,73.7,57.0,30.14,NNE,19,7.0,7.0,56,0.00,,CLR,0.00,VWS V14.00,2013-08-15 20:22:00,
2013-08-15 15:27:00,73.7,57.0,30.14,NNE,28,6.0,8.0,56,0.00,,CLR,0.00,VWS V14.00,2013-08-15 20:27:00,
2013-08-15 15:30:00,73.7,58.5,30.14,NE,45,6.0,11.0,59,0.00,,CLR,0.00,VWS V14.00,2013-08-15 20:30:00,
2013-08-15 15:32:00,73.7,57.0,30.14,NNE,29,10.0,13.0,56,0.00,,CLR,0.00,VWS V14.00,2013-08-15 20:32:00,
2013-08-15 15:37:00,73.2,56.6,30.14,ENE,58,5.0,13.0,56,0.00,,CLR,0.00,VWS V14.00,2013-08-15 20:37:00,
2013-08-15 15:42:00,72.4,57.8,30.14,NE,40,6.0,13.0,60,0.00,,CLR,0.00,VWS V14.00,2013-08-15 20:42:00,
2013-08-15 15:47:00,72.6,57.0,30.14,NE,53,5.0,13.0,58,0.00,,CLR,0.00,VWS V14.00,2013-08-15 20:47:00,
2013-08-15 15:52:00,73.2,57.5,30.14,NE,44,1.0,4.0,58,0.00,,CLR,0.00,VWS V14.00,2013-08-15 20:52:00,
2013-08-15 15:58:00,73.6,57.4,30.14,NE,37,5.0,7.0,57,0.00,,CLR,0.00,VWS V14.00,2013-08-15 20:58:00,
2013-08-15 16:00:00,73.0,57.4,30.13,NE,43,3.0,13.0,58,0.00,,CLR,0.00,VWS V14.00,2013-08-15 21:00:00,
2013-08-15 16:02:00,72.9,57.8,30.13,ENE,76,3.0,7.0,59,0.00,,CLR,0.00,VWS V14.00,2013-08-15 21:02:00,
2013-08-15 16:07:00,72.4,58.2,30.13,ENE,76,3.0,7.0,61,0.00,,CLR,0.00,VWS V14.00,2013-08-15 21:07:00,
2013-08-15 16:12:00,72.5,58.3,30.13,NE,42,2.0,7.0,61,0.00,,CLR,0.00,VWS V14.00,2013-08-15 21:12:00,
2013-08-15 16:18:00,72.9,56.3,30.13,NE,42,2.0,7.0,56,0.00,,CLR,0.00,VWS V14.00,2013-08-15 21:18:00,
2013-08-15 16:23:00,73.5,57.8,30.13,NE,49,3.0,6.0,58,0.00,,CLR,0.00,VWS V14.00,2013-08-15 21:23:00,
2013-08-15 16:28:00,73.9,58.2,30.13,North,355,3.0,10.0,58,0.00,,CLR,0.00,VWS V14.00,2013-08-15 21:28:00,
2013-08-15 16:30:00,73.2,59.0,30.13,NE,42,0.0,7.0,61,0.00,,CLR,0.00,VWS V14.00,2013-08-15 21:30:00,
2013-08-15 16:33:00,73.8,57.1,30.13,NE,42,2.0,10.0,56,0.00,,CLR,0.00,VWS V14.00,2013-08-15 21:33:00,
2013-08-15 16:38:00,73.2,57.1,30.12,NE,35,6.0,10.0,57,0.00,,CLR,0.00,VWS V14.00,2013-08-15 21:38:00,
2013-08-15 16:43:00,72.6,57.5,30.12,ENE,61,0.0,10.0,59,0.00,,CLR,0.00,VWS V14.00,2013-08-15 21:43:00,
2013-08-15 16:48:00,72.8,56.7,30.12,NNE,26,5.0,10.0,57,0.00,,CLR,0.00,VWS V14.00,2013-08-15 21:48:00,
2013-08-15 16:53:00,73.1,58.9,30.12,ENE,74,1.0,5.0,61,0.00,,CLR,0.00,VWS V14.00,2013-08-15 21:53:00,
2013-08-15 16:58:00,73.4,58.7,30.12,East,87,1.0,5.0,60,0.00,,CLR,0.00,VWS V14.00,2013-08-15 21:58:00,
2013-08-15 17:00:00,72.9,58.2,30.12,East,92,2.0,10.0,60,0.00,,CLR,0.00,VWS V14.00,2013-08-15 22:00:00,
2013-08-15 17:03:00,73.4,57.7,30.12,East,87,2.0,5.0,58,0.00,,CLR,0.00,VWS V14.00,2013-08-15 22:03:00,
2013-08-15 17:08:00,72.5,57.4,30.13,ENE,60,2.0,7.0,59,0.00,,CLR,0.00,VWS V14.00,2013-08-15 22:08:00,
2013-08-15 17:13:00,71.9,60.4,30.13,NE,45,0.0,7.0,67,0.00,,CLR,0.00,VWS V14.00,2013-08-15 22:13:00,
2013-08-15 17:18:00,71.8,58.1,30.13,NE,37,3.0,7.0,62,0.00,,CLR,0.00,VWS V14.00,2013-08-15 22:18:00,
2013-08-15 17:23:00,72.3,58.6,30.13,NE,38,3.0,3.0,62,0.00,,CLR,0.00,VWS V14.00,2013-08-15 22:23:00,
2013-08-15 17:28:00,72.2,58.0,30.13,ENE,60,1.0,4.0,61,0.00,,CLR,0.00,VWS V14.00,2013-08-15 22:28:00,
2013-08-15 17:30:00,72.1,58.8,30.13,NE,37,1.0,7.0,63,0.00,,CLR,0.00,VWS V14.00,2013-08-15 22:30:00,
2013-08-15 17:33:00,72.0,59.2,30.13,ENE,59,3.0,4.0,64,0.00,,CLR,0.00,VWS V14.00,2013-08-15 22:33:00,
2013-08-15 17:38:00,71.6,58.8,30.13,NNE,25,0.0,6.0,64,0.00,,CLR,0.00,VWS V14.00,2013-08-15 22:38:00,
2013-08-15 17:43:00,71.2,57.1,30.13,ENE,78,3.0,6.0,61,0.00,,CLR,0.00,VWS V14.00,2013-08-15 22:43:00,
2013-08-15 17:48:00,71.0,58.2,30.13,NE,54,0.0,6.0,64,0.00,,CLR,0.00,VWS V14.00,2013-08-15 22:48:00,
2013-08-15 17:53:00,70.9,58.6,30.13,NNE,33,6.0,6.0,65,0.00,,CLR,0.00,VWS V14.00,2013-08-15 22:53:00,
2013-08-15 17:58:00,70.7,59.6,30.13,NNE,27,1.0,6.0,68,0.00,,CLR,0.00,VWS V14.00,2013-08-15 22:58:00,
2013-08-15 18:00:00,71.0,59.1,30.13,NE,40,2.0,6.0,66,0.00,,CLR,0.00,VWS V14.00,2013-08-15 23:00:00,
2013-08-15 18:03:00,71.0,58.2,30.12,NNE,24,1.0,6.0,64,0.00,,CLR,0.00,VWS V14.00,2013-08-15 23:03:00,
2013-08-15 18:08:00,71.5,58.3,30.12,NNE,29,1.0,6.0,63,0.00,,CLR,0.00,VWS V14.00,2013-08-15 23:08:00,
2013-08-15 18:13:00,71.6,58.8,30.13,NNE,30,2.0,6.0,64,0.00,,CLR,0.00,VWS V14.00,2013-08-15 23:13:00,
2013-08-15 18:18:00,71.5,58.7,30.12,ENE,59,2.0,6.0,64,0.00,,CLR,0.00,VWS V14.00,2013-08-15 23:18:00,
2013-08-15 18:23:00,71.5,58.7,30.13,ENE,59,0.0,2.0,64,0.00,,CLR,0.00,VWS V14.00,2013-08-15 23:23:00,
2013-08-15 18:29:00,71.0,58.7,30.13,ENE,65,1.0,3.0,65,0.00,,CLR,0.00,VWS V14.00,2013-08-15 23:29:00,
2013-08-15 18:30:00,71.5,59.6,30.13,ENE,60,2.0,6.0,66,0.00,,CLR,0.00,VWS V14.00,2013-08-15 23:30:00,
2013-08-15 18:34:00,70.5,59.8,30.12,ENE,65,0.0,3.0,69,0.00,,CLR,0.00,VWS V14.00,2013-08-15 23:34:00,
2013-08-15 18:39:00,69.8,59.6,30.12,ENE,65,2.0,3.0,70,0.00,,CLR,0.00,VWS V14.00,2013-08-15 23:39:00,
2013-08-15 18:44:00,69.2,59.4,30.12,ENE,64,0.0,3.0,71,0.00,,CLR,0.00,VWS V14.00,2013-08-15 23:44:00,
2013-08-15 18:49:00,68.5,59.1,30.13,ENE,64,0.0,3.0,72,0.00,,CLR,0.00,VWS V14.00,2013-08-15 23:49:00,
2013-08-15 18:54:00,67.9,58.9,30.13,ENE,64,0.0,0.0,73,0.00,,CLR,0.00,VWS V14.00,2013-08-15 23:54:00,
2013-08-15 18:59:00,67.3,59.1,30.13,ENE,64,0.0,0.0,75,0.00,,CLR,0.00,VWS V14.00,2013-08-15 23:59:00,
2013-08-15 19:00:00,68.3,58.9,30.13,ENE,64,0.0,3.0,72,0.00,,CLR,0.00,VWS V14.00,2013-08-16 00:00:00,
2013-08-15 19:04:00,66.7,58.5,30.13,ENE,64,0.0,0.0,75,0.00,,CLR,0.00,VWS V14.00,2013-08-16 00:04:00,
2013-08-15 19:09:00,66.2,58.8,30.13,ENE,64,0.0,0.0,77,0.00,,CLR,0.00,VWS V14.00,2013-08-16 00:09:00,
2013-08-15 19:14:00,65.6,58.2,30.13,ENE,64,0.0,0.0,77,0.00,,CLR,0.00,VWS V14.00,2013-08-16 00:14:00,
2013-08-15 19:19:00,65.2,58.2,30.13,ENE,64,1.0,1.0,78,0.00,,CLR,0.00,VWS V14.00,2013-08-16 00:19:00,
2013-08-15 19:24:00,64.8,58.1,30.13,ENE,64,0.0,1.0,79,0.00,,CLR,0.00,VWS V14.00,2013-08-16 00:24:00,
2013-08-15 19:29:00,64.5,58.2,30.13,ENE,64,0.0,1.0,80,0.00,,CLR,0.00,VWS V14.00,2013-08-16 00:29:00,
2013-08-15 19:30:00,65.0,58.0,30.13,ENE,64,0.0,2.0,78,0.00,,CLR,0.00,VWS V14.00,2013-08-16 00:30:00,
2013-08-15 19:34:00,64.1,57.8,30.13,ENE,64,0.0,1.0,80,0.00,,CLR,0.00,VWS V14.00,2013-08-16 00:34:00,
2013-08-15 19:39:00,63.9,57.6,30.13,ENE,64,0.0,1.0,80,0.00,,CLR,0.00,VWS V14.00,2013-08-16 00:39:00,
2013-08-15 19:44:00,63.7,57.8,30.13,ENE,64,0.0,1.0,81,0.00,,CLR,0.00,VWS V14.00,2013-08-16 00:44:00,
2013-08-15 19:49:00,63.4,57.8,30.13,ENE,64,0.0,1.0,82,0.00,,CLR,0.00,VWS V14.00,2013-08-16 00:49:00,
2013-08-15 19:54:00,63.2,57.6,30.13,ENE,64,0.0,0.0,82,0.00,,CLR,0.00,VWS V14.00,2013-08-16 00:54:00,
2013-08-15 19:59:00,62.9,57.3,30.13,ENE,64,0.0,0.0,82,0.00,,CLR,0.00,VWS V14.00,2013-08-16 00:59:00,
2013-08-15 20:00:00,63.4,57.8,30.13,ENE,64,0.0,1.0,82,0.00,,CLR,0.00,VWS V14.00,2013-08-16 01:00:00,
2013-08-15 20:04:00,62.7,57.5,30.13,ENE,64,0.0,0.0,83,0.00,,CLR,0.00,VWS V14.00,2013-08-16 01:04:00,
2013-08-15 20:09:00,62.4,57.5,30.14,ENE,64,0.0,0.0,84,0.00,,CLR,0.00,VWS V14.00,2013-08-16 01:09:00,
2013-08-15 20:14:00,62.2,57.3,30.14,ENE,64,0.0,0.0,84,0.00,,CLR,0.00,VWS V14.00,2013-08-16 01:14:00,
2013-08-15 20:20:00,61.9,57.0,30.14,ENE,64,0.0,0.0,84,0.00,,CLR,0.00,VWS V14.00,2013-08-16 01:20:00,
2013-08-15 20:25:00,61.6,57.0,30.14,ENE,64,0.0,0.0,85,0.00,,CLR,0.00,VWS V14.00,2013-08-16 01:25:00,
2013-08-15 20:30:00,61.2,56.7,30.14,ENE,64,0.0,0.0,85,0.00,,CLR,0.00,VWS V14.00,2013-08-16 01:30:00,
2013-08-15 20:35:00,60.9,56.7,30.14,ENE,64,0.0,0.0,86,0.00,,CLR,0.00,VWS V14.00,2013-08-16 01:35:00,
2013-08-15 20:40:00,60.5,56.3,30.14,ENE,64,0.0,0.0,86,0.00,,CLR,0.00,VWS V14.00,2013-08-16 01:40:00,
2013-08-15 20:45:00,60.1,55.9,30.14,ENE,64,0.0,0.0,86,0.00,,CLR,0.00,VWS V14.00,2013-08-16 01:45:00,
2013-08-15 20:50:00,59.7,55.8,30.14,ENE,64,0.0,0.0,87,0.00,,CLR,0.00,VWS V14.00,2013-08-16 01:50:00,
2013-08-15 20:55:00,59.4,55.8,30.15,ENE,64,0.0,0.0,88,0.00,,CLR,0.00,VWS V14.00,2013-08-16 01:55:00,
2013-08-15 21:00:00,59.1,55.5,30.15,ENE,64,0.0,0.0,88,0.00,,CLR,0.00,VWS V14.00,2013-08-16 02:00:00,
2013-08-15 21:05:00,58.8,55.3,30.15,ENE,64,0.0,0.0,88,0.00,,CLR,0.00,VWS V14.00,2013-08-16 02:05:00,
2013-08-15 21:10:00,58.6,55.4,30.15,ENE,64,0.0,0.0,89,0.00,,CLR,0.00,VWS V14.00,2013-08-16 02:10:00,
2013-08-15 21:15:00,58.3,55.1,30.15,ENE,64,0.0,0.0,89,0.00,,CLR,0.00,VWS V14.00,2013-08-16 02:15:00,
2013-08-15 21:20:00,58.0,54.8,30.15,ENE,64,0.0,0.0,89,0.00,,CLR,0.00,VWS V14.00,2013-08-16 02:20:00,
2013-08-15 21:25:00,57.7,54.8,30.15,ENE,64,0.0,0.0,90,0.00,,CLR,0.00,VWS V14.00,2013-08-16 02:25:00,
2013-08-15 21:30:00,57.5,54.6,30.15,ENE,64,0.0,0.0,90,0.00,,CLR,0.00,VWS V14.00,2013-08-16 02:30:00,
2013-08-15 21:35:00,57.4,54.8,30.15,ENE,64,0.0,0.0,91,0.00,,CLR,0.00,VWS V14.00,2013-08-16 02:35:00,
2013-08-15 21:40:00,57.2,54.6,30.16,ENE,64,0.0,0.0,91,0.00,,CLR,0.00,VWS V14.00,2013-08-16 02:40:00,
2013-08-15 21:45:00,57.0,54.4,30.16,ENE,64,0.0,0.0,91,0.00,,CLR,0.00,VWS V14.00,2013-08-16 02:45:00,
2013-08-15 21:50:00,56.9,54.3,30.16,ENE,64,0.0,0.0,91,0.00,,CLR,0.00,VWS V14.00,2013-08-16 02:50:00,
2013-08-15 21:55:00,56.7,54.1,30.16,ENE,64,0.0,0.0,91,0.00,,CLR,0.00,VWS V14.00,2013-08-16 02:55:00,
2013-08-15 22:00:00,56.6,54.0,30.16,ENE,64,0.0,0.0,91,0.00,,CLR,0.00,VWS V14.00,2013-08-16 03:00:00,
2013-08-15 22:05:00,56.5,54.2,30.17,ENE,64,0.0,0.0,92,0.00,,CLR,0.00,VWS V14.00,2013-08-16 03:05:00,
2013-08-15 22:10:00,56.4,54.1,30.17,ENE,64,0.0,0.0,92,0.00,,CLR,0.00,VWS V14.00,2013-08-16 03:10:00,
2013-08-15 22:15:00,56.3,54.0,30.17,ENE,64,0.0,0.0,92,0.00,,CLR,0.00,VWS V14.00,2013-08-16 03:15:00,
2013-08-15 22:20:00,56.2,53.9,30.16,ENE,64,0.0,0.0,92,0.00,,CLR,0.00,VWS V14.00,2013-08-16 03:20:00,
2013-08-15 22:25:00,56.1,53.8,30.16,ENE,64,0.0,0.0,92,0.00,,CLR,0.00,VWS V14.00,2013-08-16 03:25:00,
2013-08-15 22:30:00,56.0,53.7,30.16,ENE,64,0.0,0.0,92,0.00,,CLR,0.00,VWS V14.00,2013-08-16 03:30:00,
2013-08-15 22:35:00,55.9,53.6,30.16,ENE,64,0.0,0.0,92,0.00,,CLR,0.00,VWS V14.00,2013-08-16 03:35:00,
2013-08-15 22:40:00,55.7,53.4,30.16,ENE,64,0.0,0.0,92,0.00,,CLR,0.00,VWS V14.00,2013-08-16 03:40:00,
2013-08-15 22:45:00,55.5,53.2,30.16,ENE,64,0.0,0.0,92,0.00,,CLR,0.00,VWS V14.00,2013-08-16 03:45:00,
2013-08-15 22:50:00,55.4,53.1,30.16,ENE,64,0.0,0.0,92,0.00,,CLR,0.00,VWS V14.00,2013-08-16 03:50:00,
2013-08-15 22:55:00,55.3,53.0,30.17,ENE,64,0.0,0.0,92,0.00,,CLR,0.00,VWS V14.00,2013-08-16 03:55:00,
2013-08-15 23:00:00,55.2,52.9,30.17,ENE,64,0.0,0.0,92,0.00,,CLR,0.00,VWS V14.00,2013-08-16 04:00:00,
2013-08-15 23:01:00,55.1,52.8,30.17,ENE,64,0.0,0.0,92,0.00,,CLR,0.00,VWS V14.00,2013-08-16 04:01:00,
2013-08-15 23:06:00,55.0,52.7,30.17,ENE,64,0.0,0.0,92,0.00,,CLR,0.00,VWS V14.00,2013-08-16 04:06:00,
2013-08-15 23:11:00,55.0,52.7,30.17,ENE,64,0.0,0.0,92,0.00,,CLR,0.00,VWS V14.00,2013-08-16 04:11:00,
2013-08-15 23:16:00,54.9,52.6,30.17,ENE,64,0.0,0.0,92,0.00,,CLR,0.00,VWS V14.00,2013-08-16 04:16:00,
2013-08-15 23:21:00,54.8,52.5,30.17,ENE,64,0.0,0.0,92,0.00,,CLR,0.00,VWS V14.00,2013-08-16 04:21:00,
2013-08-15 23:26:00,54.6,52.3,30.17,ENE,64,0.0,0.0,92,0.00,,CLR,0.00,VWS V14.00,2013-08-16 04:26:00,
2013-08-15 23:30:00,54.8,52.5,30.17,ENE,64,0.0,0.0,92,0.00,,CLR,0.00,VWS V14.00,2013-08-16 04:30:00,
2013-08-15 23:31:00,54.5,52.5,30.17,ENE,64,0.0,0.0,93,0.00,,CLR,0.00,VWS V14.00,2013-08-16 04:31:00,
2013-08-15 23:36:00,54.3,52.3,30.17,ENE,64,0.0,0.0,93,0.00,,CLR,0.00,VWS V14.00,2013-08-16 04:36:00,
2013-08-15 23:41:00,54.1,51.8,30.17,ENE,64,0.0,0.0,92,0.00,,CLR,0.00,VWS V14.00,2013-08-16 04:41:00,
2013-08-15 23:46:00,54.0,52.0,30.17,ENE,64,0.0,0.0,93,0.00,,CLR,0.00,VWS V14.00,2013-08-16 04:46:00,
2013-08-15 23:51:00,53.9,51.9,30.17,ENE,64,0.0,0.0,93,0.00,,CLR,0.00,VWS V14.00,2013-08-16 04:51:00,
2013-08-15 23:56:00,53.8,51.8,30.17,ENE,64,0.0,0.0,93,0.00,,CLR,0.00,VWS V14.00,2013-08-16 04:56:00,